createdAt,value
2018-09-12T00:01:52.278Z,22.61
2018-09-12T00:02:52.289Z,22.47
2018-09-12T00:04:45.208Z,22.49
2018-09-12T00:05:45.233Z,22.47
2018-09-12T00:07:38.167Z,22.42
2018-09-12T00:08:38.181Z,22.47
2018-09-12T00:10:32.086Z,22.47
2018-09-12T00:11:32.119Z,22.49
2018-09-12T00:13:25.044Z,22.46
2018-09-12T00:14:25.061Z,22.42
2018-09-12T00:16:17.987Z,22.31
2018-09-12T00:17:18.002Z,22.28
2018-09-12T00:19:10.918Z,22.20
2018-09-12T00:20:10.942Z,22.28
2018-09-12T00:22:03.871Z,22.28
2018-09-12T00:23:03.880Z,22.28
2018-09-12T00:24:56.837Z,22.31
2018-09-12T00:25:56.860Z,22.25
2018-09-12T00:27:49.747Z,22.27
2018-09-12T00:28:49.761Z,22.28
2018-09-12T00:30:43.669Z,22.39
2018-09-12T00:31:43.694Z,22.27
2018-09-12T00:33:36.616Z,22.33
2018-09-12T00:34:36.635Z,22.25
2018-09-12T00:36:29.556Z,22.22
2018-09-12T00:37:29.570Z,22.30
2018-09-12T00:39:22.505Z,22.24
2018-09-12T00:40:22.526Z,22.25
2018-09-12T00:42:15.450Z,22.31
2018-09-12T00:43:15.466Z,22.28
2018-09-12T00:45:08.380Z,22.31
2018-09-12T00:46:08.404Z,22.30
2018-09-12T00:48:01.324Z,22.40
2018-09-12T00:49:01.341Z,22.46
2018-09-12T00:50:54.266Z,22.47
2018-09-12T00:51:54.323Z,22.45
2018-09-12T00:53:47.217Z,22.54
2018-09-12T00:54:47.239Z,22.47
2018-09-12T00:56:40.141Z,22.49
2018-09-12T00:57:40.168Z,22.54
2018-09-12T00:59:33.095Z,22.58
2018-09-12T01:00:33.110Z,22.60
2018-09-12T01:02:26.036Z,22.61
2018-09-12T01:03:26.046Z,22.51
2018-09-12T01:05:18.959Z,22.47
2018-09-12T01:06:18.984Z,22.49
2018-09-12T01:08:11.911Z,22.39
2018-09-12T01:09:11.926Z,22.40
2018-09-12T01:11:04.842Z,22.37
2018-09-12T01:12:04.864Z,22.30
2018-09-12T01:13:57.791Z,22.30
2018-09-12T01:14:57.807Z,22.31
2018-09-12T01:16:50.723Z,22.33
2018-09-12T01:17:50.744Z,22.40
2018-09-12T01:19:43.672Z,22.43
2018-09-12T01:20:43.689Z,22.30
2018-09-12T01:22:36.614Z,22.33
2018-09-12T01:23:36.629Z,22.27
2018-09-12T01:25:29.542Z,22.21
2018-09-12T01:26:29.572Z,22.28
2018-09-12T01:28:22.493Z,22.25
2018-09-12T01:29:22.504Z,22.31
2018-09-12T01:31:15.422Z,22.22
2018-09-12T01:32:15.447Z,22.22
2018-09-12T01:34:08.366Z,22.25
2018-09-12T01:35:08.384Z,22.30
2018-09-12T01:37:01.788Z,22.30
2018-09-12T01:38:01.814Z,22.24
2018-09-12T01:39:54.788Z,22.25
2018-09-12T01:40:54.779Z,22.22
2018-09-12T01:42:47.675Z,22.27
2018-09-12T01:43:47.706Z,22.24
2018-09-12T01:45:40.627Z,22.21
2018-09-12T01:46:40.642Z,22.18
2018-09-12T01:48:33.566Z,22.21
2018-09-12T01:49:33.583Z,22.25
2018-09-12T01:51:26.499Z,22.24
2018-09-12T01:52:26.524Z,22.20
2018-09-12T01:54:19.578Z,22.22
2018-09-12T01:55:19.483Z,22.22
2018-09-12T01:57:12.374Z,22.20
2018-09-12T01:58:12.401Z,22.22
2018-09-12T02:00:05.320Z,22.22
2018-09-12T02:01:05.338Z,22.21
2018-09-12T02:02:58.253Z,22.30
2018-09-12T02:03:58.279Z,22.30
2018-09-12T02:05:51.199Z,22.28
2018-09-12T02:06:51.216Z,22.33
2018-09-12T02:08:44.173Z,22.28
2018-09-12T02:09:44.203Z,22.40
2018-09-12T02:11:37.079Z,22.28
2018-09-12T02:12:37.095Z,22.22
2018-09-12T02:14:30.016Z,22.17
2018-09-12T02:15:30.035Z,22.25
2018-09-12T02:17:22.944Z,22.21
2018-09-12T02:18:22.971Z,22.21
2018-09-12T02:20:15.896Z,22.22
2018-09-12T02:21:15.912Z,22.18
2018-09-12T02:23:08.888Z,22.17
2018-09-12T02:24:08.844Z,22.22
2018-09-12T02:26:01.779Z,22.09
2018-09-12T02:27:01.793Z,22.12
2018-09-12T02:28:54.707Z,22.10
2018-09-12T02:29:54.732Z,22.12
2018-09-12T02:31:47.662Z,22.02
2018-09-12T02:32:47.667Z,21.99
2018-09-12T02:34:40.596Z,22.03
2018-09-12T02:35:40.611Z,21.90
2018-09-12T02:37:33.534Z,21.99
2018-09-12T02:38:33.549Z,21.90
2018-09-12T02:40:26.670Z,21.82
2018-09-12T02:41:26.686Z,21.83
2018-09-12T02:43:19.601Z,21.74
2018-09-12T02:44:19.627Z,21.75
2018-09-12T02:46:12.557Z,21.74
2018-09-12T02:47:12.570Z,21.69
2018-09-12T02:49:05.491Z,21.72
2018-09-12T02:50:05.509Z,21.68
2018-09-12T02:51:58.434Z,21.64
2018-09-12T02:52:58.459Z,21.69
2018-09-12T02:54:51.364Z,21.69
2018-09-12T02:55:51.390Z,21.69
2018-09-12T02:57:44.319Z,21.68
2018-09-12T02:58:44.330Z,21.64
2018-09-12T03:00:37.254Z,21.67
2018-09-12T03:01:37.269Z,21.65
2018-09-12T03:03:30.194Z,21.67
2018-09-12T03:04:30.208Z,21.69
2018-09-12T03:06:23.134Z,21.79
2018-09-12T03:07:23.144Z,21.71
2018-09-12T03:09:16.059Z,21.77
2018-09-12T03:10:16.085Z,21.74
2018-09-12T03:12:09.008Z,21.71
2018-09-12T03:13:09.024Z,21.77
2018-09-12T03:15:01.943Z,21.84
2018-09-12T03:16:01.960Z,21.80
2018-09-12T03:17:54.880Z,21.83
2018-09-12T03:18:54.898Z,21.80
2018-09-12T03:20:47.914Z,21.84
2018-09-12T03:21:47.841Z,22.00
2018-09-12T03:23:40.755Z,21.99
2018-09-12T03:24:40.770Z,21.94
2018-09-12T03:26:33.696Z,22.03
2018-09-12T03:27:33.712Z,21.99
2018-09-12T03:29:26.626Z,21.98
2018-09-12T03:30:26.650Z,21.98
2018-09-12T03:32:19.581Z,21.98
2018-09-12T03:33:19.589Z,21.99
2018-09-12T03:35:12.522Z,21.92
2018-09-12T03:36:12.525Z,22.00
2018-09-12T03:38:05.459Z,22.00
2018-09-12T03:39:05.468Z,21.98
2018-09-12T03:40:58.383Z,21.98
2018-09-12T03:41:58.410Z,22.00
2018-09-12T03:43:51.332Z,22.00
2018-09-12T03:44:51.350Z,22.02
2018-09-12T03:46:44.275Z,21.98
2018-09-12T03:47:44.288Z,21.99
2018-09-12T03:49:37.211Z,22.00
2018-09-12T03:50:37.237Z,21.91
2018-09-12T03:52:30.193Z,21.99
2018-09-12T03:53:30.203Z,21.90
2018-09-12T03:55:23.117Z,21.86
2018-09-12T03:56:23.140Z,21.91
2018-09-12T03:58:16.086Z,21.92
2018-09-12T03:59:16.091Z,21.83
2018-09-12T04:01:09.008Z,21.86
2018-09-12T04:02:09.031Z,21.77
2018-09-12T04:04:01.955Z,21.74
2018-09-12T04:05:01.972Z,21.82
2018-09-12T04:06:54.904Z,21.82
2018-09-12T04:07:54.912Z,21.80
2018-09-12T04:09:47.827Z,21.67
2018-09-12T04:10:47.851Z,21.71
2018-09-12T04:12:40.773Z,21.64
2018-09-12T04:13:40.787Z,21.62
2018-09-12T04:15:34.144Z,21.58
2018-09-12T04:16:34.063Z,21.59
2018-09-12T04:18:26.985Z,21.49
2018-09-12T04:19:27.000Z,21.40
2018-09-12T04:21:19.917Z,21.37
2018-09-12T04:22:19.936Z,21.31
2018-09-12T04:24:12.881Z,21.25
2018-09-12T04:25:12.884Z,21.32
2018-09-12T04:27:05.795Z,21.27
2018-09-12T04:28:05.819Z,21.25
2018-09-12T04:29:58.737Z,21.22
2018-09-12T04:30:58.754Z,21.28
2018-09-12T04:32:51.665Z,21.24
2018-09-12T04:33:51.689Z,21.21
2018-09-12T04:35:44.612Z,21.19
2018-09-12T04:36:44.638Z,21.14
2018-09-12T04:38:37.550Z,21.17
2018-09-12T04:39:37.564Z,21.06
2018-09-12T04:41:30.480Z,20.95
2018-09-12T04:42:30.502Z,21.04
2018-09-12T04:44:23.437Z,21.03
2018-09-12T04:45:23.440Z,20.99
2018-09-12T04:47:16.351Z,20.87
2018-09-12T04:48:16.392Z,20.92
2018-09-12T04:50:09.294Z,20.89
2018-09-12T04:51:09.307Z,20.91
2018-09-12T04:53:02.221Z,20.87
2018-09-12T04:54:02.242Z,20.82
2018-09-12T04:55:55.166Z,20.85
2018-09-12T04:56:55.181Z,20.89
2018-09-12T04:58:48.111Z,20.87
2018-09-12T04:59:48.205Z,20.92
2018-09-12T05:01:41.033Z,20.94
2018-09-12T05:02:41.051Z,20.94
2018-09-12T05:04:33.975Z,20.97
2018-09-12T05:05:33.988Z,21.03
2018-09-12T05:07:26.900Z,20.94
2018-09-12T05:08:26.929Z,20.97
2018-09-12T05:10:19.960Z,20.98
2018-09-12T05:11:19.863Z,20.97
2018-09-12T05:13:12.775Z,21.01
2018-09-12T05:14:12.801Z,20.97
2018-09-12T05:16:05.779Z,20.95
2018-09-12T05:17:05.737Z,20.89
2018-09-12T05:18:58.659Z,20.85
2018-09-12T05:19:58.673Z,20.84
2018-09-12T05:21:51.590Z,20.84
2018-09-12T05:22:51.606Z,20.82
2018-09-12T05:24:44.528Z,20.69
2018-09-12T05:25:44.540Z,20.72
2018-09-12T05:27:37.456Z,20.66
2018-09-12T05:28:37.610Z,20.73
2018-09-12T05:30:30.403Z,20.70
2018-09-12T05:31:30.434Z,20.73
2018-09-12T05:33:23.326Z,20.77
2018-09-12T05:34:23.352Z,20.74
2018-09-12T05:36:16.322Z,20.73
2018-09-12T05:37:16.289Z,20.77
2018-09-12T05:39:09.199Z,20.84
2018-09-12T05:40:09.222Z,20.89
2018-09-12T05:42:02.153Z,20.95
2018-09-12T05:43:02.162Z,21.03
2018-09-12T05:44:55.083Z,21.04
2018-09-12T05:45:55.105Z,21.09
2018-09-12T05:47:48.030Z,21.19
2018-09-12T05:48:48.042Z,21.17
2018-09-12T05:50:40.970Z,21.24
2018-09-12T05:51:40.985Z,21.21
2018-09-12T05:53:34.122Z,21.09
2018-09-12T05:54:34.134Z,21.10
2018-09-12T05:56:27.058Z,21.03
2018-09-12T05:57:27.072Z,20.99
2018-09-12T05:59:19.994Z,21.09
2018-09-12T06:00:20.009Z,21.12
2018-09-12T06:02:13.924Z,21.22
2018-09-12T06:03:13.939Z,21.27
2018-09-12T06:05:06.856Z,21.17
2018-09-12T06:06:06.889Z,21.22
2018-09-12T06:07:59.802Z,21.28
2018-09-12T06:08:59.819Z,21.27
2018-09-12T06:10:52.751Z,21.43
2018-09-12T06:11:52.756Z,21.42
2018-09-12T06:13:45.716Z,21.44
2018-09-12T06:14:45.696Z,21.59
2018-09-12T06:16:38.624Z,21.56
2018-09-12T06:17:38.635Z,21.69
2018-09-12T06:19:31.557Z,21.75
2018-09-12T06:20:31.578Z,21.65
2018-09-12T06:22:24.502Z,21.75
2018-09-12T06:23:24.516Z,21.65
2018-09-12T06:25:17.431Z,21.72
2018-09-12T06:26:17.454Z,21.92
2018-09-12T06:28:10.372Z,22.00
2018-09-12T06:29:10.398Z,22.05
2018-09-12T06:31:03.305Z,22.17
2018-09-12T06:32:03.329Z,22.20
2018-09-12T06:33:56.260Z,22.45
2018-09-12T06:34:56.267Z,22.51
2018-09-12T06:36:49.191Z,22.45
2018-09-12T06:37:49.273Z,22.51
2018-09-12T06:39:42.149Z,22.62
2018-09-12T06:40:42.145Z,22.47
2018-09-12T06:42:35.075Z,22.46
2018-09-12T06:43:35.107Z,22.36
2018-09-12T06:45:28.001Z,22.35
2018-09-12T06:46:28.028Z,22.27
2018-09-12T06:48:20.951Z,22.43
2018-09-12T06:49:20.967Z,22.43
2018-09-12T06:51:13.883Z,22.31
2018-09-12T06:52:13.911Z,22.31
2018-09-12T06:54:06.836Z,22.25
2018-09-12T06:55:06.852Z,22.27
2018-09-12T06:56:59.770Z,22.30
2018-09-12T06:57:59.798Z,22.37
2018-09-12T06:59:52.744Z,22.46
2018-09-12T07:00:52.763Z,22.58
2018-09-12T07:02:45.687Z,22.47
2018-09-12T07:03:45.708Z,22.47
2018-09-12T07:05:38.621Z,22.58
2018-09-12T07:06:38.645Z,22.65
2018-09-12T07:08:31.576Z,22.62
2018-09-12T07:09:31.595Z,22.64
2018-09-12T07:11:24.507Z,22.85
2018-09-12T07:12:24.534Z,22.85
2018-09-12T07:14:17.544Z,23.05
2018-09-12T07:15:17.474Z,23.23
2018-09-12T07:17:10.391Z,23.43
2018-09-12T07:18:10.420Z,23.51
2018-09-12T07:20:03.341Z,23.57
2018-09-12T07:21:03.357Z,23.57
2018-09-12T07:22:56.291Z,23.75
2018-09-12T07:23:56.302Z,23.76
2018-09-12T07:25:49.222Z,23.85
2018-09-12T07:26:49.247Z,23.85
2018-09-12T07:28:42.173Z,23.87
2018-09-12T07:29:42.191Z,23.87
2018-09-12T07:31:35.114Z,23.73
2018-09-12T07:32:35.135Z,23.72
2018-09-12T07:34:28.073Z,23.79
2018-09-12T07:35:28.078Z,23.80
2018-09-12T07:37:21.006Z,23.94
2018-09-12T07:38:21.023Z,23.94
2018-09-12T07:40:13.953Z,23.95
2018-09-12T07:41:13.976Z,23.94
2018-09-12T07:43:06.894Z,24.02
2018-09-12T07:44:06.917Z,24.16
2018-09-12T07:45:59.851Z,24.28
2018-09-12T07:46:59.868Z,24.43
2018-09-12T07:48:52.833Z,24.50
2018-09-12T07:49:52.832Z,24.53
2018-09-12T07:51:45.737Z,24.49
2018-09-12T07:52:45.764Z,24.42
2018-09-12T07:54:38.727Z,24.18
2018-09-12T07:55:38.750Z,24.15
2018-09-12T07:57:31.677Z,24.24
2018-09-12T07:58:31.705Z,24.27
2018-09-12T08:00:24.696Z,24.37
2018-09-12T08:01:24.651Z,24.46
2018-09-12T08:03:17.578Z,24.53
2018-09-12T08:04:17.602Z,24.53
2018-09-12T08:06:10.530Z,24.68
2018-09-12T08:07:10.551Z,24.57
2018-09-12T08:09:03.488Z,24.60
2018-09-12T08:10:03.490Z,24.64
2018-09-12T08:11:56.411Z,24.58
2018-09-12T08:12:56.435Z,24.62
2018-09-12T08:14:49.359Z,24.57
2018-09-12T08:15:49.377Z,24.49
2018-09-12T08:17:42.295Z,24.65
2018-09-12T08:18:42.323Z,24.57
2018-09-12T08:20:35.249Z,24.60
2018-09-12T08:21:35.265Z,24.61
2018-09-12T08:23:28.182Z,24.61
2018-09-12T08:24:28.208Z,24.57
2018-09-12T08:26:21.193Z,24.49
2018-09-12T08:27:21.153Z,24.45
2018-09-12T08:29:14.096Z,24.42
2018-09-12T08:30:14.096Z,24.53
2018-09-12T08:32:07.019Z,24.52
2018-09-12T08:33:07.042Z,24.42
2018-09-12T08:34:59.989Z,24.55
2018-09-12T08:35:59.987Z,24.60
2018-09-12T08:37:52.914Z,24.64
2018-09-12T08:38:52.940Z,24.73
2018-09-12T08:40:45.864Z,24.91
2018-09-12T08:41:45.882Z,24.90
2018-09-12T08:43:38.810Z,25.10
2018-09-12T08:44:38.837Z,25.15
2018-09-12T08:46:31.764Z,25.25
2018-09-12T08:47:31.780Z,25.32
2018-09-12T08:49:24.701Z,25.40
2018-09-12T08:50:24.744Z,25.28
2018-09-12T08:52:17.655Z,25.47
2018-09-12T08:53:17.673Z,25.55
2018-09-12T08:55:10.593Z,25.57
2018-09-12T08:56:10.618Z,25.61
2018-09-12T08:58:03.547Z,25.46
2018-09-12T08:59:03.570Z,25.46
2018-09-12T09:00:56.495Z,25.30
2018-09-12T09:01:56.520Z,25.24
2018-09-12T09:03:49.431Z,24.93
2018-09-12T09:04:49.467Z,24.83
2018-09-12T09:06:42.391Z,24.71
2018-09-12T09:07:42.413Z,24.76
2018-09-12T09:09:36.335Z,24.65
2018-09-12T09:10:36.421Z,24.76
2018-09-12T09:12:29.291Z,24.69
2018-09-12T09:13:29.318Z,24.77
2018-09-12T09:15:22.232Z,24.95
2018-09-12T09:16:22.264Z,25.03
2018-09-12T09:18:15.187Z,25.23
2018-09-12T09:19:15.204Z,25.39
2018-09-12T09:21:08.158Z,25.55
2018-09-12T09:22:08.183Z,25.65
2018-09-12T09:24:01.100Z,25.92
2018-09-12T09:25:01.129Z,25.94
2018-09-12T09:26:54.062Z,25.91
2018-09-12T09:27:54.078Z,25.92
2018-09-12T09:29:46.992Z,25.92
2018-09-12T09:30:47.024Z,25.91
2018-09-12T09:32:40.007Z,25.69
2018-09-12T09:33:39.974Z,25.75
2018-09-12T09:35:33.198Z,25.65
2018-09-12T09:36:33.138Z,25.64
2018-09-12T09:38:26.058Z,25.67
2018-09-12T09:39:26.075Z,25.77
2018-09-12T09:41:18.999Z,25.54
2018-09-12T09:42:19.027Z,25.45
2018-09-12T09:44:11.981Z,25.27
2018-09-12T09:45:11.992Z,25.00
2018-09-12T09:47:04.992Z,25.00
2018-09-12T09:48:05.008Z,24.80
2018-09-12T09:49:57.858Z,24.87
2018-09-12T09:50:57.884Z,24.81
2018-09-12T09:52:50.879Z,24.61
2018-09-12T09:53:50.864Z,24.47
2018-09-12T09:55:43.785Z,24.31
2018-09-12T09:56:43.784Z,24.16
2018-09-12T09:58:36.713Z,23.98
2018-09-12T09:59:36.732Z,24.02
2018-09-12T10:01:29.650Z,24.02
2018-09-12T10:02:29.679Z,23.79
2018-09-12T10:04:22.607Z,23.84
2018-09-12T10:05:22.621Z,23.90
2018-09-12T10:07:15.544Z,23.80
2018-09-12T10:08:15.576Z,23.79
2018-09-12T10:10:08.520Z,23.73
2018-09-12T10:11:08.535Z,23.83
2018-09-12T10:13:01.448Z,23.84
2018-09-12T10:14:01.467Z,23.84
2018-09-12T10:15:54.402Z,23.90
2018-09-12T10:16:54.409Z,23.98
2018-09-12T10:18:47.338Z,23.72
2018-09-12T10:19:47.356Z,23.78
2018-09-12T10:21:40.285Z,23.93
2018-09-12T10:22:40.309Z,23.87
2018-09-12T10:24:33.244Z,23.87
2018-09-12T10:25:33.265Z,23.84
2018-09-12T10:27:26.191Z,23.78
2018-09-12T10:28:26.216Z,23.78
2018-09-12T10:30:19.169Z,23.90
2018-09-12T10:31:19.184Z,23.98
2018-09-12T10:33:12.315Z,24.21
2018-09-12T10:34:12.337Z,24.25
2018-09-12T10:36:05.267Z,24.45
2018-09-12T10:37:05.285Z,24.53
2018-09-12T10:38:58.238Z,24.68
2018-09-12T10:39:58.241Z,24.78
2018-09-12T10:41:51.161Z,24.81
2018-09-12T10:42:51.198Z,24.85
2018-09-12T10:44:44.122Z,24.61
2018-09-12T10:45:44.138Z,24.57
2018-09-12T10:47:37.060Z,24.47
2018-09-12T10:48:37.089Z,24.53
2018-09-12T10:50:30.053Z,24.52
2018-09-12T10:51:30.030Z,24.52
2018-09-12T10:53:23.030Z,24.60
2018-09-12T10:54:23.034Z,24.73
2018-09-12T10:56:15.974Z,24.91
2018-09-12T10:57:16.037Z,25.00
2018-09-12T10:59:08.981Z,25.35
2018-09-12T11:00:08.970Z,25.30
2018-09-12T11:02:01.924Z,25.47
2018-09-12T11:03:01.890Z,25.45
2018-09-12T11:04:55.338Z,25.55
2018-09-12T11:05:55.378Z,25.60
2018-09-12T11:07:48.265Z,25.36
2018-09-12T11:08:48.291Z,25.28
2018-09-12T11:10:41.287Z,25.18
2018-09-12T11:11:41.244Z,25.21
2018-09-12T11:13:34.163Z,25.39
2018-09-12T11:14:34.194Z,25.58
2018-09-12T11:16:27.187Z,25.67
2018-09-12T11:17:27.139Z,25.64
2018-09-12T11:19:20.055Z,25.10
2018-09-12T11:20:20.085Z,24.88
2018-09-12T11:22:13.030Z,24.30
2018-09-12T11:23:13.045Z,24.09
2018-09-12T11:25:05.966Z,23.60
2018-09-12T11:26:06.013Z,23.27
2018-09-12T11:27:58.924Z,22.94
2018-09-12T11:28:58.939Z,22.82
2018-09-12T11:30:51.869Z,22.60
2018-09-12T11:31:51.884Z,22.54
2018-09-12T11:33:45.799Z,22.47
2018-09-12T11:34:45.829Z,22.40
2018-09-12T11:36:38.813Z,22.46
2018-09-12T11:37:38.764Z,22.47
2018-09-12T11:39:31.685Z,22.55
2018-09-12T11:40:31.724Z,22.60
2018-09-12T11:42:24.633Z,22.54
2018-09-12T11:43:24.649Z,22.37
2018-09-12T11:45:17.596Z,22.49
2018-09-12T11:46:17.617Z,22.61
2018-09-12T11:48:11.033Z,22.73
2018-09-12T11:49:11.075Z,22.82
2018-09-12T11:51:04.038Z,22.85
2018-09-12T11:52:03.998Z,22.80
2018-09-12T11:53:56.911Z,22.58
2018-09-12T11:54:56.935Z,22.57
2018-09-12T11:56:50.026Z,22.65
2018-09-12T11:57:50.039Z,22.77
2018-09-12T11:59:42.958Z,23.04
2018-09-12T12:00:42.984Z,23.10
2018-09-12T12:02:35.915Z,23.07
2018-09-12T12:03:35.936Z,23.05
2018-09-12T12:05:28.854Z,22.92
2018-09-12T12:06:28.909Z,22.92
2018-09-12T12:08:21.808Z,22.85
2018-09-12T12:09:21.819Z,22.77
2018-09-12T12:11:14.738Z,22.67
2018-09-12T12:12:14.801Z,22.70
2018-09-12T12:14:07.689Z,22.67
2018-09-12T12:15:07.743Z,22.57
2018-09-12T12:17:00.627Z,22.70
2018-09-12T12:18:00.661Z,22.67
2018-09-12T12:19:53.578Z,22.75
2018-09-12T12:20:53.589Z,22.73
2018-09-12T12:22:46.532Z,22.82
2018-09-12T12:23:46.549Z,22.85
2018-09-12T12:25:39.467Z,22.65
2018-09-12T12:26:39.516Z,22.68
2018-09-12T12:28:32.450Z,22.67
2018-09-12T12:29:32.463Z,22.73
2018-09-12T12:31:25.384Z,22.68
2018-09-12T12:32:25.438Z,22.61
2018-09-12T12:34:18.335Z,22.72
2018-09-12T12:35:18.391Z,22.75
2018-09-12T12:37:11.304Z,22.60
2018-09-12T12:38:11.317Z,22.46
2018-09-12T12:40:04.229Z,22.52
2018-09-12T12:41:04.260Z,22.52
2018-09-12T12:42:57.192Z,22.54
2018-09-12T12:43:57.202Z,22.49
2018-09-12T12:45:50.195Z,22.49
2018-09-12T12:46:50.202Z,22.45
2018-09-12T12:48:43.121Z,22.28
2018-09-12T12:49:43.142Z,22.25
2018-09-12T12:51:36.076Z,22.20
2018-09-12T12:52:36.117Z,22.12
2018-09-12T12:54:29.016Z,22.15
2018-09-12T12:55:29.037Z,22.14
2018-09-12T12:57:21.953Z,22.15
2018-09-12T12:58:21.982Z,22.02
2018-09-12T13:00:14.907Z,22.03
2018-09-12T13:01:14.956Z,21.94
2018-09-12T13:03:07.845Z,21.67
2018-09-12T13:04:07.877Z,21.50
2018-09-12T13:06:00.780Z,21.19
2018-09-12T13:07:00.806Z,21.06
2018-09-12T13:08:53.800Z,20.95
2018-09-12T13:09:53.774Z,20.85
2018-09-12T13:11:46.692Z,20.59
2018-09-12T13:12:46.686Z,20.57
2018-09-12T13:14:39.662Z,20.57
2018-09-12T13:15:39.622Z,20.54
2018-09-12T13:17:32.541Z,20.55
2018-09-12T13:18:32.564Z,20.42
2018-09-12T13:20:25.494Z,20.41
2018-09-12T13:21:25.584Z,20.23
2018-09-12T13:23:18.424Z,20.13
2018-09-12T13:24:18.452Z,20.08
2018-09-12T13:26:11.436Z,19.98
2018-09-12T13:27:11.446Z,19.98
2018-09-12T13:29:04.313Z,20.01
2018-09-12T13:30:04.363Z,20.01
2018-09-12T13:31:57.243Z,19.87
2018-09-12T13:32:57.277Z,19.87
2018-09-12T13:34:50.188Z,19.80
2018-09-12T13:35:50.199Z,19.76
2018-09-12T13:37:43.114Z,19.68
2018-09-12T13:38:43.135Z,19.69
2018-09-12T13:40:36.060Z,19.69
2018-09-12T13:41:36.072Z,19.76
2018-09-12T13:43:28.993Z,19.77
2018-09-12T13:44:29.078Z,19.84
2018-09-12T13:46:21.932Z,19.91
2018-09-12T13:47:21.944Z,19.94
2018-09-12T13:49:14.874Z,20.06
2018-09-12T13:50:14.883Z,20.17
2018-09-12T13:52:07.805Z,20.28
2018-09-12T13:53:07.820Z,20.23
2018-09-12T13:55:00.739Z,20.23
2018-09-12T13:56:00.753Z,20.18
2018-09-12T13:57:53.677Z,20.11
2018-09-12T13:58:53.690Z,20.14
2018-09-12T14:00:46.611Z,20.03
2018-09-12T14:01:46.627Z,20.01
2018-09-12T14:03:39.540Z,19.98
2018-09-12T14:04:39.565Z,20.03
2018-09-12T14:06:32.489Z,20.16
2018-09-12T14:07:32.494Z,20.17
2018-09-12T14:09:25.428Z,19.99
2018-09-12T14:10:25.448Z,19.91
2018-09-12T14:12:18.374Z,19.84
2018-09-12T14:13:18.384Z,19.83
2018-09-12T14:15:11.314Z,19.88
2018-09-12T14:16:11.324Z,19.87
2018-09-12T14:18:04.239Z,19.91
2018-09-12T14:19:04.263Z,19.95
2018-09-12T14:20:57.207Z,19.95
2018-09-12T14:21:57.866Z,19.98
2018-09-12T14:23:50.112Z,19.73
2018-09-12T14:24:50.144Z,19.81
2018-09-12T14:26:43.070Z,19.74
2018-09-12T14:27:43.808Z,19.74
2018-09-12T14:29:37.453Z,19.71
2018-09-12T14:30:37.481Z,19.71
2018-09-12T14:32:30.659Z,19.87
2018-09-12T14:33:32.810Z,19.81
2018-09-12T14:35:23.534Z,19.74
2018-09-12T14:36:23.557Z,19.68
2018-09-12T14:38:16.478Z,19.74
2018-09-12T14:39:16.531Z,19.66
2018-09-12T14:41:09.425Z,19.63
2018-09-12T14:42:09.524Z,19.66
2018-09-12T14:44:02.357Z,19.73
2018-09-12T14:45:02.407Z,19.73
2018-09-12T14:46:55.359Z,19.68
2018-09-12T14:47:55.345Z,19.56
2018-09-12T14:49:48.270Z,19.62
2018-09-12T14:50:48.332Z,19.66
2018-09-12T14:52:41.209Z,19.48
2018-09-12T14:53:41.214Z,19.46
2018-09-12T14:55:34.123Z,19.32
2018-09-12T14:56:34.146Z,19.36
2018-09-12T14:58:27.065Z,19.32
2018-09-12T14:59:27.078Z,19.25
2018-09-12T15:01:20.010Z,19.21
2018-09-12T15:02:20.012Z,19.10
2018-09-12T15:04:12.940Z,19.00
2018-09-12T15:05:12.960Z,18.98
2018-09-12T15:07:05.882Z,18.95
2018-09-12T15:08:06.425Z,19.00
2018-09-12T15:09:58.806Z,18.98
2018-09-12T15:10:58.827Z,18.95
2018-09-12T15:12:51.744Z,18.88
2018-09-12T15:13:51.757Z,18.88
2018-09-12T15:15:44.688Z,18.98
2018-09-12T15:16:44.711Z,18.91
2018-09-12T15:18:37.632Z,18.84
2018-09-12T15:19:37.645Z,18.82
2018-09-12T15:21:30.560Z,19.04
2018-09-12T15:22:30.581Z,19.08
2018-09-12T15:24:23.502Z,19.21
2018-09-12T15:25:23.516Z,19.14
2018-09-12T15:27:16.434Z,19.11
2018-09-12T15:28:16.449Z,19.10
2018-09-12T15:30:09.421Z,19.10
2018-09-12T15:31:09.381Z,19.06
2018-09-12T15:33:02.498Z,18.99
2018-09-12T15:34:02.509Z,19.02
2018-09-12T15:35:55.430Z,19.10
2018-09-12T15:36:55.452Z,19.16
2018-09-12T15:38:48.450Z,19.21
2018-09-12T15:39:48.386Z,19.23
2018-09-12T15:41:41.299Z,19.21
2018-09-12T15:42:41.336Z,19.25
2018-09-12T15:44:34.232Z,19.36
2018-09-12T15:45:34.247Z,19.39
2018-09-12T15:47:27.174Z,19.58
2018-09-12T15:48:27.182Z,19.71
2018-09-12T15:50:20.102Z,19.88
2018-09-12T15:51:20.121Z,19.88
2018-09-12T15:53:13.040Z,19.87
2018-09-12T15:54:13.056Z,19.99
2018-09-12T15:56:05.966Z,19.92
2018-09-12T15:57:05.999Z,19.87
2018-09-12T15:58:58.928Z,19.80
2018-09-12T15:59:58.938Z,19.84
2018-09-12T16:01:51.948Z,19.65
2018-09-12T16:02:52.332Z,19.73
2018-09-12T16:04:46.233Z,19.77
2018-09-12T16:05:46.257Z,19.76
2018-09-12T16:07:39.194Z,19.84
2018-09-12T16:08:39.194Z,19.88
2018-09-12T16:10:32.138Z,19.86
2018-09-12T16:11:32.152Z,19.83
2018-09-12T16:13:25.336Z,19.87
2018-09-12T16:14:25.380Z,19.92
2018-09-12T16:16:18.020Z,19.77
2018-09-12T16:17:18.130Z,19.77
2018-09-12T16:19:11.070Z,19.63
2018-09-12T16:20:11.053Z,19.56
2018-09-12T16:22:03.993Z,19.56
2018-09-12T16:23:04.027Z,19.58
2018-09-12T16:24:56.876Z,19.62
2018-09-12T16:25:56.894Z,19.63
2018-09-12T16:27:49.801Z,19.55
2018-09-12T16:28:49.823Z,19.44
2018-09-12T16:30:42.740Z,19.32
2018-09-12T16:31:42.759Z,19.22
2018-09-12T16:33:35.696Z,19.29
2018-09-12T16:34:35.747Z,19.31
2018-09-12T16:36:28.594Z,19.26
2018-09-12T16:37:28.624Z,19.33
2018-09-12T16:39:21.547Z,19.31
2018-09-12T16:40:21.641Z,19.32
2018-09-12T16:42:14.494Z,19.26
2018-09-12T16:43:14.500Z,19.22
2018-09-12T16:45:07.411Z,19.29
2018-09-12T16:46:07.427Z,19.32
2018-09-12T16:48:00.518Z,19.21
2018-09-12T16:49:00.363Z,19.32
2018-09-12T16:50:53.285Z,19.26
2018-09-12T16:51:53.298Z,19.26
2018-09-12T16:53:46.211Z,19.29
2018-09-12T16:54:46.235Z,19.25
2018-09-12T16:56:39.186Z,19.26
2018-09-12T16:57:39.173Z,19.28
2018-09-12T16:59:32.095Z,19.18
2018-09-12T17:00:32.107Z,19.26
2018-09-12T17:02:25.011Z,19.21
2018-09-12T17:03:25.031Z,19.23
2018-09-12T17:05:17.978Z,19.19
2018-09-12T17:06:17.996Z,19.28
2018-09-12T17:08:10.906Z,19.21
2018-09-12T17:09:10.928Z,19.25
2018-09-12T17:11:03.847Z,19.23
2018-09-12T17:12:03.860Z,19.25
2018-09-12T17:13:56.773Z,19.19
2018-09-12T17:14:56.794Z,19.26
2018-09-12T17:16:49.718Z,19.31
2018-09-12T17:17:49.726Z,19.22
2018-09-12T17:19:42.637Z,19.25
2018-09-12T17:20:42.657Z,19.14
2018-09-12T17:22:35.606Z,19.23
2018-09-12T17:23:35.621Z,19.14
2018-09-12T17:25:28.551Z,19.08
2018-09-12T17:26:28.554Z,19.19
2018-09-12T17:28:21.469Z,18.99
2018-09-12T17:29:21.497Z,18.95
2018-09-12T17:31:14.629Z,19.16
2018-09-12T17:32:14.702Z,19.06
2018-09-12T17:34:07.564Z,19.13
2018-09-12T17:35:07.585Z,19.11
2018-09-12T17:37:00.707Z,19.18
2018-09-12T17:38:00.717Z,19.18
2018-09-12T17:39:53.631Z,19.08
2018-09-12T17:40:53.652Z,19.14
2018-09-12T17:42:46.562Z,19.19
2018-09-12T17:43:46.576Z,19.23
2018-09-12T17:45:39.486Z,19.19
2018-09-12T17:46:39.512Z,19.23
2018-09-12T17:48:32.428Z,19.22
2018-09-12T17:49:32.439Z,19.23
2018-09-12T17:51:25.391Z,19.11
2018-09-12T17:52:25.377Z,19.10
2018-09-12T17:54:18.293Z,19.16
2018-09-12T17:55:18.309Z,19.13
2018-09-12T17:57:11.237Z,19.16
2018-09-12T17:58:11.241Z,18.99
2018-09-12T18:00:04.205Z,18.92
2018-09-12T18:01:04.228Z,18.88
2018-09-12T18:02:57.147Z,18.84
2018-09-12T18:03:57.162Z,18.87
2018-09-12T18:05:50.198Z,18.73
2018-09-12T18:06:50.098Z,18.76
2018-09-12T18:08:43.010Z,18.76
2018-09-12T18:09:43.030Z,18.69
2018-09-12T18:11:35.940Z,18.78
2018-09-12T18:12:35.957Z,18.80
2018-09-12T18:14:29.421Z,18.90
2018-09-12T18:15:28.887Z,18.87
2018-09-12T18:17:21.807Z,18.84
2018-09-12T18:18:21.826Z,18.90
2018-09-12T18:20:14.747Z,18.91
2018-09-12T18:21:14.756Z,18.90
2018-09-12T18:23:08.670Z,18.88
2018-09-12T18:24:08.739Z,18.85
2018-09-12T18:26:01.598Z,18.94
2018-09-12T18:27:01.615Z,18.99
2018-09-12T18:28:54.545Z,18.95
2018-09-12T18:29:54.559Z,18.84
2018-09-12T18:31:47.467Z,18.88
2018-09-12T18:32:47.490Z,18.80
2018-09-12T18:34:40.407Z,18.85